createdAt,value
2023-11-30T00:01:08.704Z,100312.16
2023-11-30T00:06:00.342Z,100452.16
2023-11-30T00:10:47.979Z,100342.06
2023-11-30T00:15:41.119Z,100345.09
2023-11-30T00:20:32.148Z,100287.84
2023-11-30T00:25:23.471Z,100206.88
2023-11-30T00:30:22.545Z,100225.84
2023-11-30T00:40:41.564Z,100313.84
2023-11-30T00:45:33.568Z,100418.72
2023-11-30T00:50:22.727Z,100282.31
2023-11-30T00:55:12.296Z,100177.13
2023-11-30T01:00:03.213Z,100364.84
2023-11-30T01:04:51.101Z,100255.94
2023-11-30T01:09:39.231Z,100403.56
2023-11-30T01:14:26.498Z,100403.00
2023-11-30T01:19:16.429Z,100379.97
2023-11-30T01:24:04.093Z,100351.19
2023-11-30T01:28:51.943Z,100221.94
2023-11-30T01:33:41.149Z,100360.38
2023-11-30T01:38:33.293Z,100379.53
2023-11-30T01:43:26.581Z,100255.88
2023-11-30T01:48:16.088Z,100366.97
2023-11-30T01:53:07.037Z,100235.53
2023-11-30T01:57:57.806Z,100203.84
2023-11-30T02:02:45.754Z,100217.59
2023-11-30T02:07:33.021Z,100170.44
2023-11-30T02:12:22.705Z,100284.31
2023-11-30T02:17:12.745Z,100262.38
2023-11-30T02:22:02.752Z,100320.41
2023-11-30T02:26:54.237Z,100367.03
2023-11-30T02:31:41.568Z,100276.97
2023-11-30T02:36:31.377Z,100347.94
2023-11-30T02:41:21.757Z,100338.44
2023-11-30T02:46:09.657Z,100370.72
2023-11-30T02:50:58.289Z,100365.75
2023-11-30T02:55:45.951Z,100179.34
2023-11-30T03:00:37.193Z,100238.50
2023-11-30T03:05:24.720Z,100174.81
2023-11-30T03:10:12.854Z,100226.81
2023-11-30T03:15:01.615Z,100126.72
2023-11-30T03:19:53.497Z,100119.34
2023-11-30T03:24:43.455Z,100119.34
2023-11-30T03:29:31.014Z,100223.81
2023-11-30T03:34:20.023Z,100216.19
2023-11-30T03:39:10.327Z,100325.66
2023-11-30T03:44:05.282Z,100252.94
2023-11-30T03:48:53.282Z,100355.94
2023-11-30T03:53:40.590Z,100115.59
2023-11-30T03:58:30.434Z,100133.78
2023-11-30T04:03:17.628Z,100199.19
2023-11-30T04:08:05.440Z,100262.38
2023-11-30T04:12:52.605Z,100264.59
2023-11-30T04:17:53.956Z,100334.88
2023-11-30T04:22:41.313Z,100293.03
2023-11-30T04:27:28.480Z,100326.66
2023-11-30T04:32:15.876Z,100301.53
2023-11-30T04:37:05.961Z,100319.63
2023-11-30T04:41:53.338Z,100255.91
2023-11-30T04:46:41.217Z,100333.34
2023-11-30T04:51:28.486Z,100228.75
2023-11-30T05:54:47.608Z,100238.59
2023-11-30T05:59:34.946Z,100314.34
2023-11-30T06:04:22.186Z,100277.31
2023-11-30T06:09:46.379Z,100292.66
2023-11-30T06:14:40.880Z,100395.16
2023-11-30T06:19:31.629Z,100166.06
2023-11-30T06:24:20.924Z,100220.38
2023-11-30T06:29:10.936Z,100227.66
2023-11-30T06:34:01.474Z,100272.50
2023-11-30T06:38:50.020Z,100271.66
2023-11-30T06:43:38.191Z,100168.78
2023-11-30T07:04:15.831Z,100293.56
2023-11-30T07:09:03.370Z,100386.97
2023-11-30T07:13:50.912Z,100280.53
2023-11-30T07:18:38.487Z,100188.59
2023-11-30T07:23:28.404Z,100339.69
2023-11-30T07:28:37.066Z,100250.50
2023-11-30T07:33:29.877Z,100243.00
2023-11-30T08:52:39.305Z,100366.22
2023-11-30T08:57:27.672Z,100303.00
2023-11-30T09:02:18.419Z,100281.06
2023-11-30T09:07:06.208Z,100412.28
2023-11-30T09:12:10.265Z,100404.38
2023-11-30T09:17:00.315Z,100252.56
2023-11-30T09:21:50.967Z,100319.31
2023-11-30T09:27:08.811Z,100342.03
2023-11-30T09:32:10.454Z,100317.31
2023-11-30T09:36:58.526Z,100360.13
2023-11-30T09:42:01.045Z,100416.09
2023-11-30T09:46:59.119Z,100369.22
2023-11-30T09:52:21.534Z,100409.97
2023-11-30T10:07:56.624Z,100299.22
2023-11-30T10:13:04.641Z,100251.28
2023-11-30T11:21:29.491Z,100304.31
2023-11-30T11:26:20.764Z,100317.50
2023-11-30T11:31:09.720Z,100292.34
2023-11-30T11:35:57.491Z,100418.03
2023-11-30T11:40:47.639Z,100381.34
2023-11-30T11:45:48.383Z,100298.72
2023-11-30T11:50:38.302Z,100311.78
2023-11-30T11:55:25.892Z,100296.38
2023-11-30T12:00:17.061Z,100378.22
2023-11-30T12:05:09.045Z,100299.06
2023-11-30T12:09:59.268Z,100416.06
2023-11-30T12:14:47.075Z,100271.38
2023-11-30T12:19:38.376Z,100157.00
2023-11-30T12:24:25.665Z,100305.75
2023-11-30T12:29:42.917Z,100367.91
2023-11-30T12:34:30.089Z,100342.28
2023-11-30T12:39:19.962Z,100395.34
2023-11-30T12:44:07.424Z,100381.28
2023-11-30T12:48:54.971Z,100394.13
2023-11-30T12:53:54.626Z,100291.38
2023-11-30T12:58:59.837Z,100334.69
2023-11-30T13:03:53.857Z,100248.13
2023-11-30T14:50:34.653Z,100296.53
2023-11-30T14:55:22.419Z,100370.72
2023-11-30T15:00:14.120Z,100305.50
2023-11-30T15:05:01.989Z,100367.53
2023-11-30T15:09:52.770Z,100213.75
2023-11-30T15:14:40.399Z,100376.16
2023-11-30T15:19:28.093Z,100425.25
2023-11-30T15:24:15.826Z,100412.84
2023-11-30T15:29:05.924Z,100408.88
2023-11-30T15:33:53.535Z,100309.28
2023-11-30T15:38:56.638Z,100295.22
2023-11-30T15:43:43.898Z,100323.03
2023-11-30T15:48:36.558Z,100281.63
2023-11-30T15:53:26.157Z,100310.25
2023-11-30T15:58:14.786Z,100239.44
2023-11-30T16:03:04.780Z,100288.59
2023-11-30T16:08:10.604Z,100281.25
2023-11-30T16:12:58.633Z,100378.47
2023-11-30T16:17:48.886Z,100309.59
2023-11-30T16:22:36.434Z,100384.53
2023-11-30T16:27:28.219Z,100245.81
2023-11-30T16:32:15.849Z,100315.53
2023-11-30T16:37:03.373Z,100386.25
2023-11-30T16:41:50.797Z,100419.22
2023-11-30T16:46:40.676Z,100336.41
2023-11-30T16:57:15.817Z,100329.94
2023-11-30T17:02:13.863Z,100359.38
2023-11-30T17:07:01.435Z,100450.06
2023-11-30T17:11:48.777Z,100400.41
2023-11-30T17:16:39.076Z,100458.13
2023-11-30T17:21:29.348Z,100346.69
2023-11-30T17:26:50.492Z,100225.78
2023-11-30T17:31:45.364Z,100355.91
2023-11-30T17:36:39.924Z,100335.50
2023-11-30T17:41:27.509Z,100458.19
2023-11-30T17:46:14.854Z,100411.56
2023-11-30T17:51:05.408Z,100409.25
2023-11-30T17:55:55.623Z,100446.25
2023-11-30T18:00:48.241Z,100443.72
2023-11-30T18:05:35.987Z,100375.84
2023-11-30T18:10:25.662Z,100396.59
2023-11-30T18:15:15.993Z,100463.28
2023-11-30T18:20:03.881Z,100243.63
2023-11-30T18:24:53.642Z,100383.19
2023-11-30T18:29:41.891Z,100450.84
2023-11-30T18:34:32.552Z,100349.66
2023-11-30T18:39:55.099Z,100477.91
2023-11-30T21:42:10.266Z,100441.16
2023-11-30T21:46:57.954Z,100355.16
2023-11-30T21:51:45.377Z,100376.09
2023-11-30T21:56:33.046Z,100505.25
2023-11-30T22:01:23.354Z,100354.00
2023-11-30T22:06:11.977Z,100438.38
2023-11-30T22:10:59.816Z,100383.72
2023-11-30T22:15:50.828Z,100539.19
2023-11-30T22:21:08.696Z,100490.28
2023-11-30T22:26:04.133Z,100462.09
2023-11-30T22:30:52.331Z,100437.53
2023-11-30T22:35:40.595Z,100493.84
2023-11-30T22:40:38.120Z,100532.38
2023-11-30T22:45:26.116Z,100453.31
2023-11-30T22:50:13.897Z,100367.31
2023-11-30T22:55:01.966Z,100375.25
2023-11-30T22:59:54.286Z,100529.50
2023-11-30T23:04:43.784Z,100375.22
2023-11-30T23:09:31.453Z,100507.25
2023-11-30T23:14:22.522Z,100533.91
2023-11-30T23:19:12.633Z,100497.47
2023-11-30T23:24:00.794Z,100605.59
2023-11-30T23:28:50.551Z,100610.78
2023-11-30T23:33:38.366Z,100475.72
2023-11-30T23:38:30.933Z,100611.81
2023-11-30T23:43:18.128Z,100573.38
2023-11-30T23:48:08.759Z,100476.28
2023-11-30T23:52:56.044Z,100527.09
2023-11-30T23:57:45.920Z,100478.16
